Time;durP1;ratioP1;P1;durP2;ratioP2;P2;SDS_P1;SDS_P2;PMS_P1;PMS_P2;Temp;Humidity;BMP_temperature;BMP_pressure;BME280_temperature;BME280_humidity;BME280_pressure;Samples;Min_cycle;Max_cycle;Signal;HPM_P1;HPM_P2
2023/02/24 00:01:59;;;;;;;43.92;42.33;;;8.70;92.40;;;;;;5070035;28;20021;-79
2023/02/24 00:04:28;;;;;;;43.97;42.38;;;8.70;92.40;;;;;;5051885;28;20565;-79
2023/02/24 00:06:54;;;;;;;48.88;47.08;;;8.70;92.30;;;;;;5069822;28;20045;-79
2023/02/24 00:09:22;;;;;;;47.78;46.00;;;8.80;92.30;;;;;;5052230;28;20032;-78
2023/02/24 00:12:09;;;;;;;48.08;46.28;;;8.70;92.30;;;;;;5069892;28;20481;-79
2023/02/24 00:14:37;;;;;;;50.55;48.70;;;8.80;92.30;;;;;;5069938;28;20338;-78
2023/02/24 00:17:05;;;;;;;48.92;47.13;;;8.70;92.30;;;;;;5069682;28;20016;-78
2023/02/24 00:19:33;;;;;;;51.95;50.05;;;8.70;92.30;;;;;;5069593;28;20090;-78
2023/02/24 00:22:00;;;;;;;50.38;48.58;;;8.70;92.30;;;;;;5069617;28;20192;-78
2023/02/24 00:24:26;;;;;;;50.28;48.47;;;8.70;92.30;;;;;;5069540;28;20031;-78
2023/02/24 00:26:58;;;;;;;51.40;49.50;;;8.70;92.30;;;;;;5069455;28;20107;-78
2023/02/24 00:29:24;;;;;;;52.50;50.60;;;8.70;92.40;;;;;;5069423;28;20028;-78
2023/02/24 00:31:58;;;;;;;55.47;53.47;;;8.70;92.40;;;;;;5069476;28;20025;-78
2023/02/24 00:34:25;;;;;;;52.90;51.00;;;8.70;92.40;;;;;;5069371;28;20104;-78
2023/02/24 00:36:51;;;;;;;54.90;52.90;;;8.70;92.40;;;;;;5069063;28;20116;-79
2023/02/24 00:39:17;;;;;;;53.50;51.60;;;8.70;92.30;;;;;;5069284;28;20132;-79
2023/02/24 00:41:44;;;;;;;54.35;52.35;;;8.70;92.30;;;;;;5069337;28;20025;-78
2023/02/24 00:44:12;;;;;;;53.03;51.13;;;8.70;92.30;;;;;;5069203;28;20029;-78
2023/02/24 00:46:44;;;;;;;54.25;52.25;;;8.60;92.30;;;;;;5068884;28;20041;-78
2023/02/24 00:49:15;;;;;;;54.05;52.05;;;8.60;92.30;;;;;;5069085;28;20029;-78
2023/02/24 00:51:43;;;;;;;58.05;55.95;;;8.50;92.30;;;;;;5069136;28;20059;-78
2023/02/24 00:54:13;;;;;;;54.88;52.88;;;8.60;92.30;;;;;;5069036;28;20388;-78
2023/02/24 00:56:41;;;;;;;55.08;53.08;;;8.50;92.30;;;;;;5050983;28;20028;-78
2023/02/24 00:59:09;;;;;;;58.65;56.55;;;8.50;92.30;;;;;;5068966;28;20032;-78
2023/02/24 01:01:35;;;;;;;59.42;57.25;;;8.50;92.30;;;;;;5068668;28;20036;-78
2023/02/24 01:04:12;;;;;;;56.13;54.13;;;8.50;92.30;;;;;;5050866;28;20032;-78
2023/02/24 01:06:41;;;;;;;57.78;55.67;;;8.40;92.30;;;;;;5068443;28;20036;-78
2023/02/24 01:09:07;;;;;;;59.70;57.50;;;8.40;92.30;;;;;;5068804;28;20033;-78
2023/02/24 01:14:20;;;;;;;59.13;57.00;;;8.40;92.30;;;;;;5069190;28;20015;-78
2023/02/24 01:16:49;;;;;;;62.30;60.05;;;8.40;92.30;;;;;;5068673;28;20488;-78
2023/02/24 01:19:20;;;;;;;62.33;60.03;;;8.40;92.30;;;;;;5068721;28;20071;-78
2023/02/24 01:21:50;;;;;;;66.57;64.18;;;8.40;92.30;;;;;;5068657;28;20492;-78
2023/02/24 01:24:16;;;;;;;66.18;63.78;;;8.50;92.40;;;;;;5068707;28;20032;-78
2023/02/24 01:26:42;;;;;;;64.88;62.50;;;8.50;92.40;;;;;;5068462;28;20487;-78
2023/02/24 01:29:08;;;;;;;;;;;8.50;92.40;;;;;;5069026;28;20035;-78
2023/02/24 01:31:37;;;;;;;66.93;64.53;;;8.50;92.40;;;;;;5068424;28;19904;-78
2023/02/24 01:34:05;;;;;;;66.35;63.95;;;8.50;92.30;;;;;;5068531;28;20017;-78
2023/02/24 01:36:32;;;;;;;67.47;65.03;;;8.60;92.30;;;;;;5068302;28;20032;-78
2023/02/24 01:38:59;;;;;;;66.65;64.25;;;8.60;92.40;;;;;;5050721;28;20036;-79
2023/02/24 01:41:26;;;;;;;68.45;65.95;;;8.60;92.30;;;;;;5068366;28;20107;-79
2023/02/24 01:43:57;;;;;;;70.95;68.38;;;8.60;92.40;;;;;;5068335;28;20090;-78
2023/02/24 01:46:25;;;;;;;73.32;70.72;;;8.60;92.40;;;;;;5050258;28;20534;-78
2023/02/24 01:48:55;;;;;;;70.18;67.68;;;8.60;92.30;;;;;;5067434;28;20071;-78
2023/02/24 01:51:21;;;;;;;71.47;68.88;;;8.60;92.30;;;;;;5068304;28;20044;-78
2023/02/24 01:53:48;;;;;;;73.82;71.13;;;8.60;92.40;;;;;;5068155;28;20488;-78
2023/02/24 01:56:15;;;;;;;67.65;65.18;;;8.60;92.30;;;;;;5067909;28;20025;-78
2023/02/24 01:58:41;;;;;;;71.82;69.22;;;8.60;92.30;;;;;;5068050;28;20028;-78
2023/02/24 02:01:08;;;;;;;73.55;70.90;;;8.60;92.30;;;;;;5067987;28;20477;-78
2023/02/24 02:03:37;;;;;;;70.45;67.93;;;8.60;92.30;;;;;;5068022;28;20029;-78
2023/02/24 02:06:06;;;;;;;72.80;70.10;;;8.50;92.30;;;;;;5067920;28;20353;-78
2023/02/24 02:08:36;;;;;;;70.88;68.30;;;8.40;92.30;;;;;;5067786;28;20025;-78
2023/02/24 02:11:05;;;;;;;69.57;67.07;;;8.40;92.30;;;;;;5067994;28;20498;-78
2023/02/24 02:13:34;;;;;;;73.95;71.25;;;8.30;92.30;;;;;;5067920;28;20021;-78
2023/02/24 02:16:22;;;;;;;75.38;72.68;;;8.20;92.30;;;;;;5068033;28;20052;-78
2023/02/24 02:19:03;;;;;;;72.40;69.80;;;8.20;92.30;;;;;;5049761;28;20060;-79
2023/02/24 02:21:44;;;;;;;74.95;72.25;;;8.20;92.30;;;;;;5067880;28;20040;-79
2023/02/24 02:24:34;;;;;;;75.05;72.35;;;8.10;92.30;;;;;;5067833;28;20028;-78
2023/02/24 02:27:38;;;;;;;79.68;76.85;;;8.10;92.30;;;;;;5047247;28;20039;-79
2023/02/24 02:30:19;;;;;;;81.85;78.95;;;8.10;92.40;;;;;;5067145;28;20036;-79
2023/02/24 02:33:00;;;;;;;79.15;76.35;;;8.10;92.40;;;;;;5067670;28;20025;-78
2023/02/24 02:35:59;;;;;;;83.80;80.80;;;8.10;92.40;;;;;;5067511;28;20107;-79
2023/02/24 02:38:51;;;;;;;81.07;78.15;;;8.10;92.40;;;;;;5067570;28;20027;-79
2023/02/24 02:41:22;;;;;;;81.50;78.60;;;8.10;92.40;;;;;;5049546;28;20032;-79
2023/02/24 02:43:55;;;;;;;82.28;79.32;;;8.10;92.30;;;;;;5049581;28;20033;-79
2023/02/24 02:46:34;;;;;;;78.40;75.60;;;8.00;92.40;;;;;;5067229;28;20395;-78
2023/02/24 02:49:15;;;;;;;79.97;77.07;;;8.10;92.40;;;;;;5067337;28;20028;-79
2023/02/24 02:51:50;;;;;;;79.88;76.97;;;8.20;92.40;;;;;;5067286;28;20108;-79
2023/02/24 02:54:19;;;;;;;81.40;78.50;;;8.20;92.50;;;;;;5067185;28;20531;-79
2023/02/24 02:56:53;;;;;;;81.75;78.80;;;8.20;92.70;;;;;;5067351;28;20028;-79
2023/02/24 02:59:23;;;;;;;81.43;78.47;;;8.30;92.50;;;;;;5067232;28;20107;-79
2023/02/24 03:01:54;;;;;;;79.53;76.63;;;8.30;92.50;;;;;;5070987;28;20043;-79
2023/02/24 03:04:24;;;;;;;81.30;78.40;;;8.30;92.50;;;;;;5071228;28;20087;-79
2023/02/24 03:06:56;;;;;;;82.45;79.45;;;8.40;92.50;;;;;;5071094;28;20024;-79
2023/02/24 03:09:29;;;;;;;83.13;80.13;;;8.40;92.40;;;;;;5071105;28;20027;-79
2023/02/24 03:12:02;;;;;;;84.50;81.50;;;8.40;92.40;;;;;;5071145;28;20021;-79
2023/02/24 03:14:36;;;;;;;82.63;79.63;;;8.30;92.30;;;;;;5071044;28;20024;-79
2023/02/24 03:17:07;;;;;;;80.28;77.38;;;8.20;92.30;;;;;;5070743;28;20017;-79
2023/02/24 03:19:36;;;;;;;84.03;81.03;;;8.10;92.30;;;;;;5053011;28;20098;-79
2023/02/24 03:22:24;;;;;;;84.07;81.07;;;8.10;92.30;;;;;;5070896;28;20135;-79
2023/02/24 03:24:50;;;;;;;81.85;78.95;;;8.00;92.30;;;;;;5070784;28;20031;-79
2023/02/24 03:27:25;;;;;;;84.05;81.05;;;7.90;92.30;;;;;;5070760;28;20408;-79
2023/02/24 03:30:10;;;;;;;83.63;80.63;;;7.90;92.30;;;;;;5070867;28;20027;-79
2023/02/24 03:32:42;;;;;;;86.72;83.63;;;7.80;92.30;;;;;;5070953;28;20048;-79
2023/02/24 03:35:21;;;;;;;85.82;82.72;;;7.80;92.30;;;;;;5070750;28;20059;-79
2023/02/24 03:37:48;;;;;;;86.18;83.07;;;7.70;92.30;;;;;;5070577;28;20384;-78
2023/02/24 03:40:15;;;;;;;91.88;88.57;;;7.70;92.40;;;;;;5052842;28;20450;-79
2023/02/24 03:42:45;;;;;;;89.13;85.90;;;7.70;92.40;;;;;;5052566;28;20033;-79
2023/02/24 03:45:12;;;;;;;91.57;88.28;;;7.70;92.40;;;;;;5052495;28;20554;-79
2023/02/24 03:47:39;;;;;;;91.60;88.30;;;7.70;92.40;;;;;;5070334;28;20079;-79
2023/02/24 03:50:20;;;;;;;91.32;88.03;;;7.70;92.40;;;;;;5070338;28;20013;-79
2023/02/24 03:53:10;;;;;;;88.85;85.65;;;7.70;92.40;;;;;;5052318;28;20463;-79
2023/02/24 03:55:39;;;;;;;93.65;90.25;;;7.70;92.40;;;;;;5070399;28;20096;-79
2023/02/24 03:58:15;;;;;;;88.10;84.90;;;7.70;92.40;;;;;;5070197;28;20020;-79
2023/02/24 04:00:52;;;;;;;91.22;87.93;;;7.70;92.40;;;;;;5070358;28;20442;-79
2023/02/24 04:03:33;;;;;;;92.95;89.55;;;7.70;92.40;;;;;;5070342;28;20466;-79
2023/02/24 04:06:05;;;;;;;87.50;84.30;;;7.70;92.30;;;;;;5070400;28;20048;-79
2023/02/24 04:08:37;;;;;;;90.97;87.68;;;7.60;92.30;;;;;;5069942;28;20159;-79
2023/02/24 04:11:15;;;;;;;89.55;86.30;;;7.70;92.40;;;;;;5070088;28;20024;-79
2023/02/24 04:13:47;;;;;;;90.05;86.75;;;7.70;92.40;;;;;;5069458;28;20016;-79
2023/02/24 04:16:27;;;;;;;92.45;89.07;;;7.70;92.40;;;;;;5069997;28;20034;-79
2023/02/24 04:19:02;;;;;;;91.40;88.10;;;7.70;92.30;;;;;;5069980;28;20111;-79
2023/02/24 04:21:30;;;;;;;91.32;88.03;;;7.70;92.30;;;;;;5069935;28;20025;-78
2023/02/24 04:23:58;;;;;;;92.68;89.28;;;7.70;92.30;;;;;;5069808;28;20036;-78
2023/02/24 04:26:25;;;;;;;91.25;87.93;;;7.60;92.20;;;;;;5069758;28;20059;-79
2023/02/24 04:28:52;;;;;;;90.15;86.85;;;7.50;92.30;;;;;;5069574;28;20033;-79
2023/02/24 04:31:20;;;;;;;95.03;91.55;;;7.40;92.30;;;;;;5069796;28;20021;-79
2023/02/24 04:33:52;;;;;;;92.00;88.65;;;7.30;92.30;;;;;;5069566;28;20021;-79
2023/02/24 04:36:20;;;;;;;91.60;88.20;;;7.30;92.30;;;;;;5069503;28;20052;-79
2023/02/24 04:38:47;;;;;;;90.13;86.82;;;7.30;92.30;;;;;;5069722;28;20042;-79
2023/02/24 04:41:19;;;;;;;96.55;93.05;;;7.30;92.40;;;;;;5069559;28;20033;-79
2023/02/24 04:43:47;;;;;;;95.57;92.07;;;7.30;92.40;;;;;;5069644;28;20388;-79
2023/02/24 04:46:13;;;;;;;97.28;93.68;;;7.40;92.40;;;;;;5051340;28;20403;-79
2023/02/24 04:48:39;;;;;;;97.18;93.65;;;7.40;92.40;;;;;;5069173;28;20054;-78
2023/02/24 04:51:05;;;;;;;94.25;90.82;;;7.40;92.40;;;;;;5069219;28;20036;-78
2023/02/24 04:53:31;;;;;;;94.78;91.28;;;7.40;92.30;;;;;;5069197;28;20480;-78
2023/02/24 04:56:07;;;;;;;97.00;93.43;;;7.40;92.40;;;;;;5069157;28;20036;-78
2023/02/24 04:58:33;;;;;;;97.43;93.82;;;7.50;92.40;;;;;;5069149;28;20028;-78
2023/02/24 05:00:59;;;;;;;96.60;93.10;;;7.50;92.40;;;;;;5068896;28;20033;-78
2023/02/24 05:03:28;;;;;;;95.38;91.88;;;7.60;92.40;;;;;;5069084;28;20552;-78
2023/02/24 05:06:01;;;;;;;96.80;93.25;;;7.70;92.40;;;;;;5068718;28;20036;-78
2023/02/24 05:08:29;;;;;;;96.82;93.25;;;7.70;92.40;;;;;;5068836;28;20480;-79
2023/02/24 05:10:57;;;;;;;95.93;92.40;;;7.80;92.40;;;;;;5068920;28;20021;-79
2023/02/24 05:13:26;;;;;;;96.80;93.20;;;7.80;92.40;;;;;;5068790;28;20025;-79
2023/02/24 05:15:57;;;;;;;96.95;93.35;;;7.90;92.40;;;;;;5068920;28;20039;-79
2023/02/24 05:18:24;;;;;;;98.82;95.20;;;7.90;92.40;;;;;;5068631;28;20448;-79
2023/02/24 05:23:45;;;;;;;101.13;97.40;;;8.00;92.50;;;;;;5067841;28;20044;-79
2023/02/24 05:26:16;;;;;;;100.95;97.22;;;8.10;92.50;;;;;;5068586;28;20028;-78
2023/02/24 05:28:45;;;;;;;95.10;91.60;;;8.10;92.50;;;;;;5068357;28;20082;-79
2023/02/24 05:31:17;;;;;;;97.65;94.05;;;8.10;92.50;;;;;;5068667;28;20024;-79
2023/02/24 05:33:46;;;;;;;100.28;96.57;;;8.20;92.50;;;;;;5068397;28;20021;-79
2023/02/24 05:36:16;;;;;;;98.63;95.00;;;8.20;92.50;;;;;;5068445;28;20422;-79
2023/02/24 05:38:54;;;;;;;95.55;92.00;;;8.30;92.60;;;;;;5068356;28;20020;-79
2023/02/24 05:41:21;;;;;;;98.22;94.63;;;8.30;92.60;;;;;;5068156;28;20020;-79
2023/02/24 05:43:53;;;;;;;103.70;99.90;;;8.40;92.60;;;;;;5068202;28;20090;-78
2023/02/24 05:46:28;;;;;;;93.57;90.07;;;8.40;92.60;;;;;;5049978;28;20101;-79
2023/02/24 05:48:57;;;;;;;95.75;92.22;;;8.50;92.60;;;;;;5068003;28;20508;-79
2023/02/24 05:51:24;;;;;;;99.43;95.72;;;8.40;92.50;;;;;;5068041;28;20035;-78
2023/02/24 05:53:54;;;;;;;100.63;96.93;;;8.40;92.50;;;;;;5050222;28;20032;-79
2023/02/24 05:56:23;;;;;;;95.45;91.95;;;8.40;92.50;;;;;;5068034;28;20174;-78
2023/02/24 05:59:00;;;;;;;98.70;95.10;;;8.30;92.50;;;;;;5067703;28;20039;-79
2023/02/24 06:01:29;;;;;;;97.18;93.60;;;8.30;92.50;;;;;;5068010;28;20021;-78
2023/02/24 06:04:04;;;;;;;96.13;92.57;;;8.30;92.60;;;;;;5067950;28;20032;-78
2023/02/24 06:06:39;;;;;;;92.93;89.45;;;8.30;92.60;;;;;;5049874;28;20032;-78
2023/02/24 06:09:12;;;;;;;96.07;92.47;;;8.30;92.60;;;;;;5067730;28;20434;-79
2023/02/24 06:11:39;;;;;;;96.45;92.85;;;8.40;92.70;;;;;;5067872;28;20035;-79
2023/02/24 06:14:06;;;;;;;92.50;89.07;;;8.40;92.70;;;;;;5049910;28;20020;-79
2023/02/24 06:16:34;;;;;;;94.30;90.80;;;8.40;92.70;;;;;;5049872;28;20025;-79
2023/02/24 06:19:00;;;;;;;95.90;92.30;;;8.50;92.70;;;;;;5067669;28;20021;-79
2023/02/24 06:21:28;;;;;;;98.05;94.35;;;8.50;92.70;;;;;;5067629;28;20036;-79
2023/02/24 06:23:59;;;;;;;97.30;93.70;;;8.50;92.70;;;;;;5067512;28;20040;-78
2023/02/24 06:26:28;;;;;;;97.20;93.60;;;8.60;92.70;;;;;;5067424;28;20106;-79
2023/02/24 06:28:57;;;;;;;97.78;94.15;;;8.60;92.70;;;;;;5067536;28;20028;-79
2023/02/24 06:31:23;;;;;;;96.93;93.32;;;8.70;92.70;;;;;;5067148;28;20017;-79
2023/02/24 06:33:52;;;;;;;100.70;96.95;;;8.70;92.70;;;;;;5049332;28;20116;-79
2023/02/24 06:36:18;;;;;;;100.75;96.97;;;8.70;92.60;;;;;;5067048;28;20036;-79
2023/02/24 06:38:45;;;;;;;98.70;95.00;;;8.80;92.60;;;;;;5067622;28;20024;-79
2023/02/24 06:41:11;;;;;;;95.20;91.70;;;8.80;92.60;;;;;;5067361;28;20103;-77
2023/02/24 06:43:39;;;;;;;96.82;93.22;;;8.80;92.60;;;;;;5067413;28;20480;-78
2023/02/24 06:46:06;;;;;;;96.05;92.47;;;8.80;92.60;;;;;;5067154;28;20451;-77
2023/02/24 06:48:32;;;;;;;94.05;90.55;;;8.80;92.70;;;;;;5049320;28;20551;-78
2023/02/24 06:51:12;;;;;;;95.82;92.22;;;8.80;92.60;;;;;;5067597;28;20394;-78
2023/02/24 06:53:42;;;;;;;95.45;91.93;;;8.80;92.70;;;;;;5067591;28;20107;-79
2023/02/24 06:56:18;;;;;;;94.15;90.65;;;8.80;92.70;;;;;;5067022;28;20490;-78
2023/02/24 06:58:52;;;;;;;93.13;89.63;;;8.80;92.60;;;;;;5067162;28;20031;-78
2023/02/24 07:01:27;;;;;;;94.63;91.10;;;8.80;92.70;;;;;;5049491;28;20130;-69
2023/02/24 07:06:33;;;;;;;90.70;87.30;;;8.80;92.70;;;;;;5066990;28;20454;-78
2023/02/24 07:09:00;;;;;;;94.50;91.00;;;8.80;92.70;;;;;;5067067;28;20017;-78
2023/02/24 07:11:27;;;;;;;89.32;86.03;;;8.80;92.70;;;;;;5067257;28;20017;-78
2023/02/24 07:13:53;;;;;;;95.15;91.65;;;8.80;92.70;;;;;;5067066;28;20548;-77
2023/02/24 07:16:23;;;;;;;93.93;90.43;;;8.90;92.70;;;;;;5049024;28;20111;-78
2023/02/24 07:18:55;;;;;;;93.30;89.80;;;8.90;92.70;;;;;;5067066;28;20037;-77
2023/02/24 07:21:22;;;;;;;92.55;89.13;;;8.90;92.70;;;;;;5066867;28;20548;-77
2023/02/24 07:23:49;;;;;;;94.53;91.03;;;8.90;92.70;;;;;;5049046;28;20039;-77
2023/02/24 07:26:18;;;;;;;92.82;89.38;;;8.90;92.60;;;;;;5066920;28;20020;-77
2023/02/24 07:28:46;;;;;;;94.03;90.53;;;8.80;92.60;;;;;;5066652;28;20017;-77
2023/02/24 07:31:19;;;;;;;89.93;86.57;;;8.80;92.60;;;;;;5067063;28;20023;-77
2023/02/24 07:33:46;;;;;;;90.45;87.07;;;8.90;92.70;;;;;;5066528;28;20021;-77
2023/02/24 07:36:14;;;;;;;90.72;87.32;;;8.90;92.70;;;;;;5066610;28;20078;-78
2023/02/24 07:38:41;;;;;;;90.70;87.30;;;8.90;92.70;;;;;;5066387;28;20085;-78
2023/02/24 07:41:09;;;;;;;92.88;89.43;;;8.90;92.70;;;;;;5066661;28;20041;-77
2023/02/24 07:43:36;;;;;;;92.78;89.28;;;8.90;92.70;;;;;;5066909;28;20314;-77
2023/02/24 07:46:26;;;;;;;94.43;90.88;;;9.00;92.70;;;;;;5067634;28;20055;-77
2023/02/24 07:48:53;;;;;;;87.15;83.85;;;9.00;92.70;;;;;;5064459;28;20047;-77
2023/02/24 07:51:24;;;;;;;88.95;85.57;;;9.10;92.80;;;;;;5052146;28;20223;-77
2023/02/24 07:53:53;;;;;;;92.30;88.80;;;9.10;92.80;;;;;;5070173;28;20020;-77
2023/02/24 07:56:25;;;;;;;89.30;85.90;;;9.20;92.90;;;;;;5069850;28;20017;-76
2023/02/24 07:58:58;;;;;;;91.30;87.82;;;9.30;92.80;;;;;;5070062;28;20098;-77
2023/02/24 08:01:27;;;;;;;91.97;88.47;;;9.30;92.80;;;;;;5069755;28;20452;-77
2023/02/24 08:03:55;;;;;;;95.50;91.90;;;9.30;92.80;;;;;;5069786;28;20036;-77
2023/02/24 08:06:26;;;;;;;89.28;85.88;;;9.30;92.80;;;;;;5051610;28;20084;-77
2023/02/24 08:08:58;;;;;;;88.05;84.75;;;9.40;92.80;;;;;;5051535;28;20025;-77
2023/02/24 08:11:34;;;;;;;88.07;84.72;;;9.40;92.90;;;;;;5069725;28;20032;-73
2023/02/24 08:14:12;;;;;;;87.25;83.95;;;9.50;92.90;;;;;;5069577;28;20044;-76
2023/02/24 08:16:47;;;;;;;86.22;82.97;;;9.50;92.90;;;;;;5069963;28;20021;-76
2023/02/24 08:19:19;;;;;;;86.35;83.07;;;9.60;92.90;;;;;;5069558;28;20136;-77
2023/02/24 08:21:50;;;;;;;84.97;81.78;;;9.70;92.90;;;;;;5069527;28;20025;-76
2023/02/24 08:24:22;;;;;;;83.78;80.57;;;9.70;92.90;;;;;;5069643;28;20109;-79
2023/02/24 08:27:03;;;;;;;82.57;79.47;;;9.80;92.90;;;;;;5069413;28;20495;-77
2023/02/24 08:29:56;;;;;;;82.13;79.03;;;9.80;92.90;;;;;;5069252;28;20025;-77
2023/02/24 08:32:32;;;;;;;83.10;79.90;;;9.90;92.90;;;;;;5069349;28;20472;-77
2023/02/24 08:35:04;;;;;;;83.93;80.73;;;9.90;92.90;;;;;;5069161;28;20400;-77
2023/02/24 08:37:38;;;;;;;86.30;83.05;;;9.90;92.90;;;;;;5069202;28;20431;-77
2023/02/24 08:40:36;;;;;;;84.57;81.32;;;9.90;92.90;;;;;;5051721;28;20028;-76
2023/02/24 08:43:14;;;;;;;84.43;81.13;;;10.00;92.90;;;;;;5069309;28;20112;-79
2023/02/24 08:45:43;;;;;;;84.95;81.65;;;10.00;92.90;;;;;;5068452;28;20072;-79
2023/02/24 08:48:17;;;;;;;88.43;85.03;;;10.00;92.90;;;;;;5068095;28;20029;-79
2023/02/24 08:50:47;;;;;;;86.60;83.20;;;10.00;92.90;;;;;;5052014;28;20055;-79
2023/02/24 08:53:17;;;;;;;87.18;83.78;;;10.00;92.90;;;;;;5068244;28;20027;-77
2023/02/24 08:55:45;;;;;;;92.78;89.18;;;10.00;92.90;;;;;;5068940;28;20040;-77
2023/02/24 08:58:16;;;;;;;88.75;85.25;;;10.00;92.90;;;;;;5068308;28;20037;-76
2023/02/24 09:00:52;;;;;;;92.40;88.82;;;10.00;92.90;;;;;;5035983;28;20235;-76
2023/02/24 09:03:32;;;;;;;91.40;87.80;;;9.90;92.90;;;;;;5050090;28;20037;-76
2023/02/24 09:05:58;;;;;;;95.70;92.00;;;10.00;92.90;;;;;;5068636;28;20036;-76
2023/02/24 09:08:31;;;;;;;90.25;86.75;;;10.00;93.00;;;;;;5068732;28;20380;-77
2023/02/24 09:10:58;;;;;;;91.68;88.07;;;10.00;93.00;;;;;;5067693;28;20036;-77
2023/02/24 09:13:31;;;;;;;93.53;89.93;;;10.10;93.00;;;;;;5067369;28;20377;-76
2023/02/24 09:15:59;;;;;;;91.22;87.63;;;10.10;93.00;;;;;;5067258;28;20037;-77
2023/02/24 09:18:29;;;;;;;91.95;88.35;;;10.20;93.00;;;;;;5050528;28;20021;-78
2023/02/24 09:20:56;;;;;;;92.93;89.32;;;10.20;93.00;;;;;;5068037;28;20025;-78
2023/02/24 09:23:28;;;;;;;94.88;91.28;;;10.30;93.10;;;;;;5068293;28;20029;-77
2023/02/24 09:25:55;;;;;;;90.47;86.97;;;10.40;93.10;;;;;;5068282;28;20032;-77
2023/02/24 09:28:26;;;;;;;90.15;86.75;;;10.50;93.10;;;;;;5067927;28;20025;-78
2023/02/24 09:31:03;;;;;;;94.10;90.50;;;10.60;93.20;;;;;;5068056;28;20501;-78
2023/02/24 09:33:29;;;;;;;;;;;10.60;93.40;;;;;;5051028;28;20108;-79
2023/02/24 09:36:09;;;;;;;86.82;83.53;;;10.70;93.10;;;;;;5067762;28;19947;-78
2023/02/24 09:39:23;;;;;;;88.18;84.88;;;10.70;93.10;;;;;;5067458;28;20029;-79
2023/02/24 09:44:22;;;;;;;;;;;10.80;93.10;;;;;;5068258;28;20093;-79
2023/02/24 09:46:58;;;;;;;82.95;79.85;;;10.90;93.10;;;;;;5068679;28;19912;-78
2023/02/24 09:49:38;;;;;;;84.35;81.20;;;10.80;93.00;;;;;;5069133;28;20029;-78
2023/02/24 09:52:15;;;;;;;84.35;81.20;;;10.80;93.00;;;;;;5068528;28;20421;-79
2023/02/24 09:54:52;;;;;;;84.28;81.18;;;10.70;92.90;;;;;;5067788;28;20482;-78
2023/02/24 09:57:24;;;;;;;86.10;82.90;;;10.70;93.00;;;;;;5049537;28;20483;-79
2023/02/24 10:03:40;;;;;;;82.70;79.50;;;10.70;93.00;;;;;;4999803;28;20614;-79
2023/02/24 10:06:25;;;;;;;83.47;80.28;;;10.70;93.10;;;;;;5054684;28;20021;-80
2023/02/24 10:08:53;;;;;;;79.38;76.35;;;10.80;93.10;;;;;;5057144;28;20055;-79
2023/02/24 10:11:31;;;;;;;81.38;78.28;;;10.80;93.10;;;;;;5067243;28;20017;-79
2023/02/24 10:14:04;;;;;;;79.82;76.72;;;10.70;93.10;;;;;;5053460;28;20036;-79
2023/02/24 10:16:40;;;;;;;77.63;74.63;;;10.80;93.20;;;;;;5052000;28;20124;-78
2023/02/24 10:19:23;;;;;;;78.80;75.80;;;10.80;93.20;;;;;;5054479;28;20082;-76
2023/02/24 10:22:01;;;;;;;76.35;73.45;;;10.90;93.20;;;;;;5051674;28;20033;-78
2023/02/24 10:24:40;;;;;;;77.25;74.25;;;10.90;93.20;;;;;;5058276;28;20057;-78
2023/02/24 10:27:12;;;;;;;78.32;75.30;;;11.00;93.20;;;;;;5050901;28;20052;-78
2023/02/24 10:30:02;;;;;;;79.43;76.35;;;11.10;93.30;;;;;;5047786;28;20097;-78
2023/02/24 10:32:35;;;;;;;74.35;71.45;;;11.20;93.30;;;;;;5039451;28;20079;-77
2023/02/24 10:35:01;;;;;;;77.47;74.47;;;11.30;93.30;;;;;;5060597;28;20464;-78
2023/02/24 10:37:28;;;;;;;75.47;72.57;;;11.40;93.30;;;;;;5051390;28;20511;-78
2023/02/24 10:40:08;;;;;;;74.53;71.63;;;11.50;93.30;;;;;;5061162;28;20044;-75
2023/02/24 10:42:36;;;;;;;72.30;69.50;;;11.70;93.30;;;;;;5049124;28;20052;-78
2023/02/24 10:45:22;;;;;;;72.03;69.30;;;11.70;93.30;;;;;;5060130;28;20021;-76
2023/02/24 10:47:59;;;;;;;73.00;70.20;;;11.80;93.20;;;;;;5055809;28;20021;-76
2023/02/24 10:50:30;;;;;;;70.18;67.47;;;11.80;93.30;;;;;;5057087;28;20016;-75
2023/02/24 10:58:27;;;;;;;69.53;66.93;;;11.70;93.20;;;;;;5055228;28;20037;-78
2023/02/24 11:01:12;;;;;;;73.15;70.38;;;11.70;93.20;;;;;;5062927;28;20035;-77
2023/02/24 11:04:00;;;;;;;69.97;67.30;;;11.70;93.20;;;;;;5036785;28;20021;-77
2023/02/24 11:17:49;;;;;;;67.07;64.55;;;11.60;93.30;;;;;;5030279;28;20080;-78
2023/02/24 11:20:26;;;;;;;68.35;65.75;;;11.60;93.50;;;;;;5053020;28;20393;-78
2023/02/24 11:22:54;;;;;;;67.35;64.80;;;11.70;93.50;;;;;;5064263;28;20025;-78
2023/02/24 11:25:23;;;;;;;65.30;62.80;;;11.90;93.50;;;;;;5072451;28;20016;-78
2023/02/24 11:27:50;;;;;;;67.03;64.47;;;12.00;93.40;;;;;;5072826;28;20052;-78
2023/02/24 11:30:26;;;;;;;73.78;70.97;;;12.00;93.30;;;;;;5072370;28;20025;-78
2023/02/24 11:33:11;;;;;;;73.32;70.53;;;11.90;93.40;;;;;;5072425;28;20051;-78
2023/02/24 11:35:51;;;;;;;72.90;70.10;;;11.80;93.20;;;;;;5032370;28;20021;-78
2023/02/24 11:38:49;;;;;;;78.13;75.22;;;11.80;93.30;;;;;;5058669;28;20036;-78
2023/02/24 11:41:20;;;;;;;76.88;73.97;;;11.80;93.30;;;;;;5058903;28;20036;-78
2023/02/24 11:43:57;;;;;;;76.30;73.40;;;11.70;93.20;;;;;;5030136;28;20468;-78
2023/02/24 11:46:41;;;;;;;79.35;76.35;;;11.70;93.20;;;;;;5047736;28;20055;-77
2023/02/24 11:49:30;;;;;;;82.20;79.10;;;11.70;93.20;;;;;;5039266;28;20033;-77
2023/02/24 11:51:59;;;;;;;76.90;74.00;;;11.70;93.30;;;;;;5049446;28;20017;-78
2023/02/24 11:54:28;;;;;;;81.30;78.20;;;11.80;93.30;;;;;;5045477;28;20017;-78
2023/02/24 11:56:58;;;;;;;82.32;79.13;;;11.90;93.30;;;;;;5049552;28;20016;-78
2023/02/24 11:59:41;;;;;;;81.57;78.47;;;11.90;93.30;;;;;;5052576;28;20028;-83
2023/02/24 12:02:13;;;;;;;84.30;81.10;;;12.00;93.30;;;;;;5056647;28;20108;-80
2023/02/24 12:05:15;;;;;;;81.90;78.78;;;12.00;93.30;;;;;;5068793;28;20090;-79
2023/02/24 12:07:49;;;;;;;80.30;77.20;;;12.10;93.30;;;;;;5032170;28;20034;-79
2023/02/24 12:10:26;;;;;;;79.88;76.78;;;12.10;93.30;;;;;;5028722;28;20040;-79
2023/02/24 12:13:09;;;;;;;82.45;79.25;;;12.10;93.40;;;;;;5066469;28;20100;-79
2023/02/24 12:15:55;;;;;;;79.78;76.68;;;12.20;93.40;;;;;;5054232;28;20017;-79
2023/02/24 12:18:39;;;;;;;77.93;74.93;;;12.30;93.40;;;;;;5039944;28;20067;-76
2023/02/24 12:21:20;;;;;;;74.32;71.47;;;12.40;93.40;;;;;;5038980;28;20114;-78
2023/02/24 12:23:49;;;;;;;76.10;73.20;;;12.40;93.40;;;;;;5053123;28;20652;-76
2023/02/24 12:26:41;;;;;;;73.40;70.60;;;12.40;93.40;;;;;;5051774;28;20053;-79
2023/02/24 12:29:55;;;;;;;68.57;65.97;;;12.40;93.40;;;;;;5030420;28;20366;-77
2023/02/24 12:32:30;;;;;;;68.47;65.93;;;12.50;93.40;;;;;;4977834;28;20149;-79
2023/02/24 12:35:18;;;;;;;71.07;68.38;;;12.40;93.40;;;;;;5058327;28;20064;-80
2023/02/24 12:38:08;;;;;;;71.07;68.40;;;12.30;93.50;;;;;;5055298;28;20022;-79
2023/02/24 12:40:40;;;;;;;70.00;67.35;;;12.30;93.60;;;;;;5045721;28;20025;-77
2023/02/24 12:43:35;;;;;;;65.80;63.30;;;12.30;93.40;;;;;;5052358;28;20028;-76
2023/02/24 12:46:12;;;;;;;69.78;67.18;;;12.30;93.40;;;;;;5022555;28;20041;-82
2023/02/24 12:48:44;;;;;;;64.57;62.17;;;12.20;93.40;;;;;;5051880;28;20068;-80
2023/02/24 12:51:39;;;;;;;64.85;62.45;;;12.20;93.40;;;;;;5051846;28;20116;-80
2023/02/24 12:54:28;;;;;;;69.03;66.45;;;12.10;93.50;;;;;;5034396;28;20031;-76
2023/02/24 12:57:12;;;;;;;70.10;67.50;;;12.00;93.50;;;;;;5043390;28;20037;-76
2023/02/24 12:59:40;;;;;;;70.25;67.65;;;12.00;93.50;;;;;;5048516;28;20127;-79
2023/02/24 13:02:39;;;;;;;70.00;67.40;;;11.90;93.60;;;;;;5051065;28;20060;-79
2023/02/24 13:05:29;;;;;;;73.57;70.88;;;11.90;93.60;;;;;;5041718;28;20107;-86
2023/02/24 13:08:08;;;;;;;79.03;76.13;;;11.80;93.50;;;;;;5043514;28;20036;-83
2023/02/24 13:11:03;;;;;;;77.78;74.88;;;11.70;93.50;;;;;;5047866;28;20021;-81
2023/02/24 13:13:55;;;;;;;82.30;79.20;;;11.60;93.70;;;;;;5042731;28;20588;-85
2023/02/24 13:16:32;;;;;;;82.22;79.13;;;11.60;93.80;;;;;;5020537;28;20099;-79
2023/02/24 13:19:18;;;;;;;82.90;79.78;;;11.70;93.80;;;;;;5039615;28;20083;-74
2023/02/24 13:22:04;;;;;;;82.15;79.05;;;11.80;93.80;;;;;;5053961;28;20025;-81
2023/02/24 13:24:31;;;;;;;82.60;79.47;;;11.90;93.80;;;;;;5042276;28;20090;-80
2023/02/24 13:27:12;;;;;;;81.10;78.00;;;12.10;93.80;;;;;;5045480;28;20076;-81
2023/02/24 13:29:48;;;;;;;77.93;74.93;;;12.30;93.80;;;;;;5053538;28;20029;-81
2023/02/24 13:32:35;;;;;;;80.05;77.05;;;12.40;93.70;;;;;;5046684;28;20418;-77
2023/02/24 13:35:06;;;;;;;77.38;74.47;;;12.50;93.70;;;;;;5043885;28;20377;-80
2023/02/24 13:37:37;;;;;;;76.55;73.65;;;12.50;93.60;;;;;;5047540;28;20048;-80